Time;durP1;ratioP1;P1;durP2;ratioP2;P2;SDS_P1;SDS_P2;PMS_P1;PMS_P2;Temp;Humidity;BMP_temperature;BMP_pressure;BME280_temperature;BME280_humidity;BME280_pressure;Samples;Min_cycle;Max_cycle;Signal;HPM_P1;HPM_P2
2021/10/05 00:01:49;;;;;;;23.60;17.43;;;;;;;;;;763564;180;1020813;-68
2021/10/05 00:04:15;;;;;;;28.13;18.33;;;;;;;;;;760022;181;919503;-69
2021/10/05 00:06:41;;;;;;;24.27;17.25;;;;;;;;;;758432;182;919410;-68
2021/10/05 00:09:07;;;;;;;27.90;15.83;;;;;;;;;;759771;184;918580;-68
2021/10/05 00:11:33;;;;;;;25.13;17.50;;;;;;;;;;759257;182;1020239;-68
2021/10/05 00:13:59;;;;;;;20.93;17.10;;;;;;;;;;758618;181;918234;-68
2021/10/05 00:16:25;;;;;;;24.80;16.70;;;;;;;;;;763780;180;918609;-69
2021/10/05 00:18:50;;;;;;;22.97;16.60;;;;;;;;;;771569;180;918868;-68
2021/10/05 00:21:16;;;;;;;24.57;19.23;;;;;;;;;;761366;182;918455;-68
2021/10/05 00:23:42;;;;;;;25.27;18.30;;;;;;;;;;767327;182;919074;-68
2021/10/05 00:26:08;;;;;;;30.67;20.90;;;;;;;;;;762740;184;918285;-68
2021/10/05 00:28:34;;;;;;;25.47;17.07;;;;;;;;;;755674;184;918883;-68
2021/10/05 00:31:00;;;;;;;24.10;15.73;;;;;;;;;;757168;181;920962;-68
2021/10/05 00:33:26;;;;;;;23.10;15.85;;;;;;;;;;773038;181;918490;-68
2021/10/05 00:35:51;;;;;;;23.60;16.73;;;;;;;;;;758017;182;918763;-69
2021/10/05 00:38:17;;;;;;;26.80;17.23;;;;;;;;;;762191;181;919477;-68
2021/10/05 00:40:43;;;;;;;23.67;16.60;;;;;;;;;;772042;181;917836;-68
2021/10/05 00:43:09;;;;;;;23.30;17.83;;;;;;;;;;759214;182;920030;-68
2021/10/05 00:45:35;;;;;;;20.90;16.90;;;;;;;;;;759054;182;920449;-69
2021/10/05 00:48:01;;;;;;;24.13;17.77;;;;;;;;;;766080;181;917719;-68
2021/10/05 00:50:26;;;;;;;27.07;18.40;;;;;;;;;;769143;180;918854;-69
2021/10/05 00:52:52;;;;;;;27.95;18.02;;;;;;;;;;761491;182;918149;-67
2021/10/05 00:55:18;;;;;;;22.63;17.43;;;;;;;;;;766168;181;918520;-68
2021/10/05 00:57:44;;;;;;;25.80;18.60;;;;;;;;;;769928;181;920403;-67
2021/10/05 01:00:10;;;;;;;27.43;18.07;;;;;;;;;;764956;179;1122214;-68
2021/10/05 01:02:37;;;;;;;23.37;18.20;;;;;;;;;;757611;185;920889;-68
2021/10/05 01:05:02;;;;;;;23.57;17.47;;;;;;;;;;748185;186;915820;-67
2021/10/05 01:07:28;;;;;;;26.80;16.23;;;;;;;;;;758541;181;918419;-67
2021/10/05 01:09:54;;;;;;;23.47;17.83;;;;;;;;;;769154;181;919031;-68
2021/10/05 01:12:19;;;;;;;23.37;17.80;;;;;;;;;;774713;180;919434;-69
2021/10/05 01:14:45;;;;;;;24.17;17.73;;;;;;;;;;767169;181;919214;-67
2021/10/05 01:17:11;;;;;;;24.85;18.50;;;;;;;;;;758711;182;920306;-67
2021/10/05 01:19:37;;;;;;;28.60;18.12;;;;;;;;;;767616;181;919498;-67
2021/10/05 01:22:03;;;;;;;26.87;18.83;;;;;;;;;;775770;180;919060;-68
2021/10/05 01:24:29;;;;;;;29.27;19.10;;;;;;;;;;773465;179;920298;-68
2021/10/05 01:26:55;;;;;;;24.33;18.90;;;;;;;;;;772521;180;919518;-68
2021/10/05 01:29:21;;;;;;;31.40;19.27;;;;;;;;;;781884;178;918977;-67
2021/10/05 01:31:47;;;;;;;25.00;18.60;;;;;;;;;;762301;181;925960;-68
2021/10/05 01:34:13;;;;;;;27.50;18.10;;;;;;;;;;773420;177;917843;-68
2021/10/05 01:36:38;;;;;;;27.40;19.47;;;;;;;;;;779712;180;919607;-67
2021/10/05 01:39:05;;;;;;;24.43;17.23;;;;;;;;;;777778;178;918932;-68
2021/10/05 01:41:31;;;;;;;26.23;17.93;;;;;;;;;;773531;181;918956;-68
2021/10/05 01:43:57;;;;;;;32.30;19.13;;;;;;;;;;778458;180;920371;-68
2021/10/05 01:46:22;;;;;;;22.17;16.53;;;;;;;;;;775157;178;919187;-67
2021/10/05 01:48:48;;;;;;;25.83;16.70;;;;;;;;;;775973;179;918220;-67
2021/10/05 01:51:14;;;;;;;24.53;16.33;;;;;;;;;;757007;185;1020844;-67
2021/10/05 01:53:40;;;;;;;25.50;16.00;;;;;;;;;;777736;181;916693;-67
2021/10/05 01:56:06;;;;;;;23.13;15.80;;;;;;;;;;775738;178;913131;-68
2021/10/05 01:58:32;;;;;;;20.80;16.73;;;;;;;;;;767683;181;914503;-67
2021/10/05 02:00:58;;;;;;;25.08;17.23;;;;;;;;;;780121;177;920790;-67
2021/10/05 02:03:23;;;;;;;29.57;17.50;;;;;;;;;;772283;178;1018579;-67
2021/10/05 02:05:49;;;;;;;26.53;18.57;;;;;;;;;;772934;178;912434;-68
2021/10/05 02:08:15;;;;;;;21.00;14.80;;;;;;;;;;780958;180;918645;-67
2021/10/05 02:10:41;;;;;;;29.00;16.80;;;;;;;;;;776502;178;921940;-67
2021/10/05 02:13:07;;;;;;;28.02;16.92;;;;;;;;;;774483;178;912314;-67
2021/10/05 02:15:33;;;;;;;24.30;15.63;;;;;;;;;;773487;180;1013225;-67
2021/10/05 02:17:58;;;;;;;22.77;16.57;;;;;;;;;;778966;177;918745;-67
2021/10/05 02:20:24;;;;;;;22.97;16.43;;;;;;;;;;773521;181;1012862;-67
2021/10/05 02:22:50;;;;;;;25.10;17.80;;;;;;;;;;775218;178;919288;-67
2021/10/05 02:25:16;;;;;;;22.20;15.60;;;;;;;;;;780699;180;919387;-67
2021/10/05 02:27:42;;;;;;;29.13;17.50;;;;;;;;;;771604;178;918517;-67
2021/10/05 02:30:08;;;;;;;23.23;17.53;;;;;;;;;;773432;178;918993;-67
2021/10/05 02:32:34;;;;;;;25.60;17.70;;;;;;;;;;780201;178;919628;-67
2021/10/05 02:35:00;;;;;;;29.45;19.55;;;;;;;;;;773985;179;918831;-67
2021/10/05 02:37:30;;;;;;;25.83;17.97;;;;;;;;;;766158;178;918425;-66
2021/10/05 02:39:51;;;;;;;26.43;18.33;;;;;;;;;;776617;177;914721;-66
2021/10/05 02:42:17;;;;;;;21.80;16.10;;;;;;;;;;774692;180;913173;-67
2021/10/05 02:44:43;;;;;;;23.00;16.97;;;;;;;;;;772694;180;919174;-66
2021/10/05 02:47:09;;;;;;;25.23;15.73;;;;;;;;;;773443;177;918784;-66
2021/10/05 02:49:36;;;;;;;25.30;14.90;;;;;;;;;;775286;180;919116;-67
2021/10/05 02:52:01;;;;;;;24.00;16.53;;;;;;;;;;774226;178;920143;-66
2021/10/05 02:54:26;;;;;;;23.53;15.93;;;;;;;;;;758264;184;919023;-66
2021/10/05 02:56:52;;;;;;;24.17;16.73;;;;;;;;;;778254;178;915891;-66
2021/10/05 02:59:18;;;;;;;22.53;16.53;;;;;;;;;;775555;178;919711;-66
2021/10/05 03:01:44;;;;;;;24.33;17.57;;;;;;;;;;774002;180;919750;-66
2021/10/05 03:04:10;;;;;;;23.70;16.33;;;;;;;;;;779115;178;911028;-66
2021/10/05 03:06:36;;;;;;;25.50;16.90;;;;;;;;;;773688;180;932920;-66
2021/10/05 03:09:02;;;;;;;25.37;15.23;;;;;;;;;;761825;181;915721;-65
2021/10/05 03:11:27;;;;;;;22.67;16.43;;;;;;;;;;772517;178;919585;-65
2021/10/05 03:13:53;;;;;;;22.40;16.70;;;;;;;;;;779696;180;913364;-66
2021/10/05 03:16:19;;;;;;;25.03;15.53;;;;;;;;;;772607;181;919032;-66
2021/10/05 03:18:46;;;;;;;21.57;17.07;;;;;;;;;;772509;177;919389;-66
2021/10/05 03:21:11;;;;;;;24.63;17.30;;;;;;;;;;779733;178;938090;-67
2021/10/05 03:23:37;;;;;;;27.70;17.20;;;;;;;;;;772107;179;919228;-67
2021/10/05 03:26:04;;;;;;;22.07;16.47;;;;;;;;;;774080;180;919245;-67
2021/10/05 03:28:28;;;;;;;23.23;17.90;;;;;;;;;;778896;181;922629;-66
2021/10/05 03:30:54;;;;;;;31.83;17.53;;;;;;;;;;769023;177;919010;-66
2021/10/05 03:33:20;;;;;;;24.07;17.27;;;;;;;;;;767946;180;918438;-66
2021/10/05 03:35:46;;;;;;;28.77;18.33;;;;;;;;;;774916;178;920895;-65
2021/10/05 03:38:12;;;;;;;26.80;18.43;;;;;;;;;;775410;178;905517;-66
2021/10/05 03:40:37;;;;;;;29.27;19.90;;;;;;;;;;775761;177;920103;-66
2021/10/05 03:43:03;;;;;;;28.20;19.43;;;;;;;;;;774998;180;915049;-66
2021/10/05 03:45:29;;;;;;;25.77;18.20;;;;;;;;;;777037;181;919124;-65
2021/10/05 03:47:55;;;;;;;22.40;16.30;;;;;;;;;;773143;178;913657;-65
2021/10/05 03:50:21;;;;;;;22.53;15.40;;;;;;;;;;775694;178;1017829;-66
2021/10/05 03:52:47;;;;;;;24.77;14.50;;;;;;;;;;782995;177;918100;-66
2021/10/05 03:55:12;;;;;;;18.43;12.33;;;;;;;;;;763556;180;919396;-65
2021/10/05 03:57:39;;;;;;;18.23;12.63;;;;;;;;;;765482;178;920420;-66
2021/10/05 04:00:05;;;;;;;17.70;13.53;;;;;;;;;;761551;181;916525;-67
2021/10/05 04:02:31;;;;;;;16.60;11.90;;;;;;;;;;774242;180;935216;-64
2021/10/05 04:04:57;;;;;;;17.83;12.70;;;;;;;;;;773694;178;916391;-65
2021/10/05 04:07:22;;;;;;;19.00;12.10;;;;;;;;;;759170;184;918775;-65
2021/10/05 04:09:48;;;;;;;13.70;10.33;;;;;;;;;;766151;180;915270;-69
2021/10/05 04:12:14;;;;;;;15.50;12.03;;;;;;;;;;773301;179;918868;-66
2021/10/05 04:14:40;;;;;;;16.20;10.50;;;;;;;;;;776149;177;920320;-66
2021/10/05 04:17:06;;;;;;;14.93;10.70;;;;;;;;;;765685;181;919948;-66
2021/10/05 04:19:32;;;;;;;17.83;10.67;;;;;;;;;;768143;181;915733;-66
2021/10/05 04:21:57;;;;;;;14.20;10.63;;;;;;;;;;770312;178;922000;-66
2021/10/05 04:24:24;;;;;;;15.07;11.00;;;;;;;;;;765792;181;920496;-67
2021/10/05 04:26:49;;;;;;;13.60;10.90;;;;;;;;;;771770;178;916066;-67
2021/10/05 04:29:15;;;;;;;13.13;10.20;;;;;;;;;;770647;181;918280;-67
2021/10/05 04:31:41;;;;;;;12.50;9.50;;;;;;;;;;772661;180;915075;-67
2021/10/05 04:34:07;;;;;;;13.30;11.00;;;;;;;;;;778976;179;916477;-67
2021/10/05 04:36:33;;;;;;;16.67;9.73;;;;;;;;;;776352;177;1005095;-67
2021/10/05 04:38:58;;;;;;;18.10;11.15;;;;;;;;;;775280;177;915886;-67
2021/10/05 04:41:24;;;;;;;19.10;11.33;;;;;;;;;;780388;180;918490;-67
2021/10/05 04:43:50;;;;;;;16.47;10.27;;;;;;;;;;771797;181;920030;-67
2021/10/05 04:46:16;;;;;;;20.30;11.40;;;;;;;;;;767136;180;918571;-68
2021/10/05 04:48:42;;;;;;;21.73;10.30;;;;;;;;;;775667;178;917394;-68
2021/10/05 04:51:08;;;;;;;16.10;10.60;;;;;;;;;;776254;177;920884;-68
2021/10/05 04:53:33;;;;;;;12.50;8.60;;;;;;;;;;778850;179;618998;-68
2021/10/05 04:55:59;;;;;;;23.90;10.27;;;;;;;;;;779974;180;628515;-67
2021/10/05 04:58:25;;;;;;;15.43;10.10;;;;;;;;;;783198;178;918512;-68
2021/10/05 05:00:51;;;;;;;12.30;9.67;;;;;;;;;;768222;181;927792;-68
2021/10/05 05:03:17;;;;;;;16.75;10.85;;;;;;;;;;773615;178;918864;-68
2021/10/05 05:05:43;;;;;;;11.40;9.50;;;;;;;;;;781060;177;918319;-68
2021/10/05 05:08:08;;;;;;;14.07;10.33;;;;;;;;;;772328;176;919952;-68
2021/10/05 05:10:34;;;;;;;14.73;10.20;;;;;;;;;;762690;180;919956;-68
2021/10/05 05:13:00;;;;;;;12.70;9.40;;;;;;;;;;767078;180;1201969;-67
2021/10/05 05:15:26;;;;;;;13.57;9.07;;;;;;;;;;759728;179;918279;-67
2021/10/05 05:17:52;;;;;;;14.97;10.50;;;;;;;;;;775237;180;918302;-68
2021/10/05 05:20:18;;;;;;;13.80;9.70;;;;;;;;;;782870;178;918724;-68
2021/10/05 05:22:45;;;;;;;21.83;10.47;;;;;;;;;;773417;180;919232;-68
2021/10/05 05:25:09;;;;;;;15.10;11.10;;;;;;;;;;771897;178;919169;-67
2021/10/05 05:27:35;;;;;;;17.73;9.80;;;;;;;;;;773381;178;919370;-68
2021/10/05 05:30:01;;;;;;;14.33;10.03;;;;;;;;;;778645;181;919463;-67
2021/10/05 05:32:27;;;;;;;13.87;9.67;;;;;;;;;;772691;181;919029;-69
2021/10/05 05:34:53;;;;;;;14.13;10.57;;;;;;;;;;771138;181;918903;-68
2021/10/05 05:37:19;;;;;;;17.70;10.40;;;;;;;;;;772149;180;918902;-67
2021/10/05 05:39:44;;;;;;;15.00;11.03;;;;;;;;;;768397;180;919046;-68
2021/10/05 05:42:10;;;;;;;13.87;10.47;;;;;;;;;;772617;180;918730;-69
2021/10/05 05:44:36;;;;;;;21.47;10.40;;;;;;;;;;780165;178;919054;-68
2021/10/05 05:47:02;;;;;;;15.30;11.07;;;;;;;;;;774020;179;919422;-68
2021/10/05 05:49:28;;;;;;;17.35;11.82;;;;;;;;;;768607;178;1019770;-68
2021/10/05 05:51:54;;;;;;;19.40;9.53;;;;;;;;;;772418;180;919256;-68
2021/10/05 05:54:20;;;;;;;25.03;11.53;;;;;;;;;;774310;178;918539;-69
2021/10/05 05:56:45;;;;;;;17.20;10.33;;;;;;;;;;775816;180;918934;-69
2021/10/05 05:59:12;;;;;;;20.80;11.30;;;;;;;;;;773091;180;919458;-69
2021/10/05 06:01:38;;;;;;;15.43;10.33;;;;;;;;;;769022;180;919577;-68
2021/10/05 06:04:05;;;;;;;16.30;10.93;;;;;;;;;;772369;178;918764;-68
2021/10/05 06:06:30;;;;;;;15.10;10.53;;;;;;;;;;772285;180;918820;-69
2021/10/05 06:08:56;;;;;;;14.33;10.37;;;;;;;;;;780455;180;918444;-68
2021/10/05 06:11:22;;;;;;;13.93;10.93;;;;;;;;;;763202;178;919300;-68
2021/10/05 06:13:47;;;;;;;12.13;10.27;;;;;;;;;;768230;180;919025;-69
2021/10/05 06:16:13;;;;;;;14.27;9.70;;;;;;;;;;774858;178;920287;-68
2021/10/05 06:18:39;;;;;;;15.00;10.57;;;;;;;;;;768445;181;959773;-68
2021/10/05 06:21:05;;;;;;;11.73;8.50;;;;;;;;;;763997;181;918961;-69
2021/10/05 06:23:31;;;;;;;24.33;9.63;;;;;;;;;;769275;178;918359;-68
2021/10/05 06:25:57;;;;;;;13.20;9.70;;;;;;;;;;777280;181;918967;-69
2021/10/05 06:28:23;;;;;;;14.23;8.90;;;;;;;;;;774117;180;919805;-68
2021/10/05 06:30:49;;;;;;;11.97;8.57;;;;;;;;;;772182;178;918983;-69
2021/10/05 06:33:17;;;;;;;11.02;8.30;;;;;;;;;;778301;181;919266;-68
2021/10/05 06:35:40;;;;;;;11.47;8.27;;;;;;;;;;772734;181;919168;-68
2021/10/05 06:38:06;;;;;;;21.53;10.00;;;;;;;;;;767045;180;920515;-68
2021/10/05 06:40:32;;;;;;;12.00;8.57;;;;;;;;;;772321;178;918970;-67
2021/10/05 06:42:58;;;;;;;11.00;7.80;;;;;;;;;;767108;181;918717;-68
2021/10/05 06:45:24;;;;;;;15.10;8.27;;;;;;;;;;773344;180;919610;-69
2021/10/05 06:47:49;;;;;;;12.50;7.60;;;;;;;;;;771848;181;1022104;-70
2021/10/05 06:50:15;;;;;;;12.73;8.47;;;;;;;;;;778033;179;919701;-69
2021/10/05 06:52:41;;;;;;;11.80;8.57;;;;;;;;;;770024;177;917636;-69
2021/10/05 06:55:07;;;;;;;17.23;9.60;;;;;;;;;;760904;178;1028475;-69
2021/10/05 06:57:34;;;;;;;9.47;7.43;;;;;;;;;;781663;180;918667;-71
2021/10/05 07:00:00;;;;;;;11.60;8.17;;;;;;;;;;777401;178;918609;-68
2021/10/05 07:02:26;;;;;;;9.82;7.05;;;;;;;;;;775495;177;918944;-69
2021/10/05 07:04:52;;;;;;;11.10;8.30;;;;;;;;;;774251;180;918638;-68
2021/10/05 07:07:17;;;;;;;15.27;8.97;;;;;;;;;;761833;181;919053;-68
2021/10/05 07:09:44;;;;;;;17.40;7.53;;;;;;;;;;774252;178;919226;-69
2021/10/05 07:12:09;;;;;;;15.90;8.77;;;;;;;;;;772254;180;918693;-69
2021/10/05 07:14:35;;;;;;;10.37;8.00;;;;;;;;;;769310;181;918899;-69
2021/10/05 07:17:01;;;;;;;15.03;8.30;;;;;;;;;;762549;181;919058;-69
2021/10/05 07:19:27;;;;;;;10.23;8.37;;;;;;;;;;769264;180;918928;-69
2021/10/05 07:21:53;;;;;;;10.83;7.83;;;;;;;;;;777452;180;918299;-70
2021/10/05 07:24:19;;;;;;;12.80;9.40;;;;;;;;;;773411;180;919685;-71
2021/10/05 07:26:44;;;;;;;10.00;7.40;;;;;;;;;;772499;181;920014;-70
2021/10/05 07:29:10;;;;;;;12.70;8.43;;;;;;;;;;779582;179;918018;-72
2021/10/05 07:31:36;;;;;;;10.97;7.73;;;;;;;;;;776008;178;920241;-68
2021/10/05 07:34:02;;;;;;;13.80;7.97;;;;;;;;;;772728;180;918784;-73
2021/10/05 07:36:28;;;;;;;17.63;8.60;;;;;;;;;;774435;181;919313;-72
2021/10/05 07:38:54;;;;;;;12.07;8.50;;;;;;;;;;769277;180;917713;-71
2021/10/05 07:41:19;;;;;;;12.67;8.50;;;;;;;;;;761717;181;921675;-71
2021/10/05 07:43:45;;;;;;;13.57;8.07;;;;;;;;;;773586;178;918703;-70
2021/10/05 07:46:12;;;;;;;17.20;8.00;;;;;;;;;;778327;181;919061;-69
2021/10/05 07:48:37;;;;;;;17.73;8.90;;;;;;;;;;773436;177;918996;-72
2021/10/05 07:51:03;;;;;;;13.47;10.03;;;;;;;;;;775849;179;919680;-70
2021/10/05 07:53:29;;;;;;;10.90;8.40;;;;;;;;;;766323;181;917743;-72
2021/10/05 07:55:54;;;;;;;18.33;7.77;;;;;;;;;;767937;181;919554;-73
2021/10/05 07:58:20;;;;;;;14.77;7.45;;;;;;;;;;772663;179;1231271;-72
2021/10/05 08:00:46;;;;;;;14.25;8.27;;;;;;;;;;780333;178;914513;-70
2021/10/05 08:03:12;;;;;;;14.40;9.10;;;;;;;;;;774431;178;1021457;-74
2021/10/05 08:05:38;;;;;;;14.60;9.40;;;;;;;;;;775408;180;919621;-72
2021/10/05 08:08:05;;;;;;;11.70;7.67;;;;;;;;;;764216;181;918706;-71
2021/10/05 08:10:30;;;;;;;12.70;8.23;;;;;;;;;;779871;177;918769;-71
2021/10/05 08:12:56;;;;;;;11.47;8.07;;;;;;;;;;767611;179;919318;-74
2021/10/05 08:15:22;;;;;;;20.07;9.00;;;;;;;;;;774672;179;919146;-68
2021/10/05 08:17:48;;;;;;;12.13;8.07;;;;;;;;;;777970;180;920412;-70
2021/10/05 08:20:14;;;;;;;13.50;9.40;;;;;;;;;;772437;180;918902;-72
2021/10/05 08:22:40;;;;;;;10.32;8.15;;;;;;;;;;775574;181;917714;-73
2021/10/05 08:25:06;;;;;;;8.77;7.70;;;;;;;;;;779783;180;919028;-74
2021/10/05 08:27:32;;;;;;;14.20;8.40;;;;;;;;;;775708;180;919016;-69
2021/10/05 08:29:58;;;;;;;10.20;8.23;;;;;;;;;;773642;178;918906;-72
2021/10/05 08:32:24;;;;;;;14.90;8.40;;;;;;;;;;774710;179;917800;-71
2021/10/05 08:34:49;;;;;;;9.90;8.50;;;;;;;;;;780549;180;920575;-71
2021/10/05 08:37:15;;;;;;;11.67;8.97;;;;;;;;;;765196;180;919371;-71
2021/10/05 08:39:41;;;;;;;10.70;8.13;;;;;;;;;;771759;180;1022456;-72
2021/10/05 08:42:07;;;;;;;10.83;8.30;;;;;;;;;;782250;180;920562;-71
2021/10/05 08:44:33;;;;;;;10.10;7.43;;;;;;;;;;773442;178;920909;-74
2021/10/05 08:46:59;;;;;;;9.98;6.55;;;;;;;;;;772341;178;921406;-73
2021/10/05 08:49:25;;;;;;;10.63;7.27;;;;;;;;;;777927;181;1121171;-72
2021/10/05 08:51:50;;;;;;;10.40;7.20;;;;;;;;;;779173;178;629210;-72
2021/10/05 08:54:16;;;;;;;11.53;7.03;;;;;;;;;;781711;178;647385;-73
2021/10/05 08:56:42;;;;;;;13.03;7.10;;;;;;;;;;773185;177;913470;-73
2021/10/05 08:59:08;;;;;;;11.93;7.40;;;;;;;;;;770866;181;627365;-73
2021/10/05 09:01:34;;;;;;;16.23;7.73;;;;;;;;;;771959;180;621443;-74
2021/10/05 09:04:00;;;;;;;14.43;6.87;;;;;;;;;;775342;178;647587;-70
2021/10/05 09:06:25;;;;;;;14.10;7.10;;;;;;;;;;776926;180;918672;-71
2021/10/05 09:08:53;;;;;;;13.37;7.30;;;;;;;;;;775065;181;874810;-73
2021/10/05 09:11:17;;;;;;;9.63;6.87;;;;;;;;;;771238;180;919118;-72
2021/10/05 09:13:43;;;;;;;16.90;6.70;;;;;;;;;;762980;184;1021253;-73
2021/10/05 09:16:14;;;;;;;10.97;7.30;;;;;;;;;;766650;182;920289;-73
2021/10/05 09:18:39;;;;;;;10.17;6.67;;;;;;;;;;772973;179;918531;-71
2021/10/05 09:21:05;;;;;;;13.23;6.70;;;;;;;;;;774923;180;919880;-71
2021/10/05 09:23:31;;;;;;;12.97;7.03;;;;;;;;;;773615;179;920763;-76
2021/10/05 09:25:57;;;;;;;9.70;6.77;;;;;;;;;;776022;180;919542;-78
2021/10/05 09:28:23;;;;;;;10.73;7.37;;;;;;;;;;774683;180;935148;-77
2021/10/05 09:31:04;;;;;;;11.07;6.90;;;;;;;;;;771119;180;923281;-75
2021/10/05 09:33:29;;;;;;;12.00;7.90;;;;;;;;;;781577;178;918409;-73
2021/10/05 09:35:55;;;;;;;10.17;7.40;;;;;;;;;;776339;179;919739;-77
2021/10/05 09:38:21;;;;;;;8.33;6.50;;;;;;;;;;773492;178;918856;-78
2021/10/05 09:40:53;;;;;;;11.00;7.00;;;;;;;;;;778664;180;917822;-77
2021/10/05 09:43:19;;;;;;;11.70;7.47;;;;;;;;;;771500;177;919502;-72
2021/10/05 09:45:44;;;;;;;17.60;7.73;;;;;;;;;;769927;179;916337;-73
2021/10/05 09:48:10;;;;;;;15.17;8.10;;;;;;;;;;755496;182;813129;-73
2021/10/05 09:50:36;;;;;;;14.83;7.80;;;;;;;;;;753664;187;914752;-77
2021/10/05 09:53:02;;;;;;;12.60;6.67;;;;;;;;;;744158;186;957236;-73
2021/10/05 09:55:28;;;;;;;13.07;7.50;;;;;;;;;;770963;177;812945;-73
2021/10/05 09:57:54;;;;;;;13.63;7.70;;;;;;;;;;776801;178;816727;-71
2021/10/05 10:00:20;;;;;;;13.00;7.70;;;;;;;;;;775025;180;816542;-75
2021/10/05 10:02:46;;;;;;;9.50;6.87;;;;;;;;;;774859;180;919016;-74
2021/10/05 10:05:12;;;;;;;14.50;7.70;;;;;;;;;;766230;180;918269;-75
2021/10/05 10:07:38;;;;;;;10.60;6.40;;;;;;;;;;778930;181;919446;-72
2021/10/05 10:10:04;;;;;;;14.70;8.17;;;;;;;;;;773622;180;919394;-78
2021/10/05 10:12:30;;;;;;;10.43;6.83;;;;;;;;;;764862;181;919052;-75
2021/10/05 10:14:56;;;;;;;10.63;7.13;;;;;;;;;;765880;181;920080;-72
2021/10/05 10:17:23;;;;;;;9.23;6.60;;;;;;;;;;764407;181;918630;-72
2021/10/05 10:19:48;;;;;;;12.30;7.63;;;;;;;;;;762022;181;919167;-75
2021/10/05 10:22:14;;;;;;;9.87;6.43;;;;;;;;;;773853;181;917793;-71
2021/10/05 10:24:43;;;;;;;10.23;6.70;;;;;;;;;;761352;181;918576;-74
2021/10/05 10:27:09;;;;;;;12.43;7.43;;;;;;;;;;759135;183;918219;-73
2021/10/05 10:29:35;;;;;;;12.40;6.90;;;;;;;;;;763992;180;915707;-74
2021/10/05 10:32:06;;;;;;;7.83;6.33;;;;;;;;;;778302;181;766451;-82
2021/10/05 10:34:32;;;;;;;8.53;6.30;;;;;;;;;;770896;179;919014;-74
2021/10/05 10:36:58;;;;;;;15.03;6.57;;;;;;;;;;765776;180;919716;-75
2021/10/05 10:39:25;;;;;;;9.37;6.70;;;;;;;;;;765480;184;914611;-79
2021/10/05 10:41:59;;;;;;;9.87;6.53;;;;;;;;;;759467;183;908072;-78
2021/10/05 10:44:27;;;;;;;27.57;5.67;;;;;;;;;;756733;183;880356;-80
2021/10/05 10:46:53;;;;;;;6.93;5.30;;;;;;;;;;766465;180;918428;-80
2021/10/05 10:49:19;;;;;;;14.50;6.43;;;;;;;;;;762441;183;914166;-72
2021/10/05 10:51:45;;;;;;;7.67;6.07;;;;;;;;;;756391;183;919550;-81
2021/10/05 10:54:11;;;;;;;7.30;5.13;;;;;;;;;;763210;181;918860;-74
2021/10/05 10:56:37;;;;;;;9.47;5.57;;;;;;;;;;763124;181;919642;-77
2021/10/05 10:59:02;;;;;;;9.00;6.37;;;;;;;;;;770216;181;918224;-79
2021/10/05 11:01:34;;;;;;;8.70;6.07;;;;;;;;;;764072;180;842907;-78
2021/10/05 11:04:05;;;;;;;7.07;5.33;;;;;;;;;;770373;181;915407;-75
2021/10/05 11:06:31;;;;;;;8.93;5.90;;;;;;;;;;764925;180;916274;-76
2021/10/05 11:08:56;;;;;;;10.07;5.70;;;;;;;;;;765138;181;917275;-73
2021/10/05 11:11:37;;;;;;;9.20;5.37;;;;;;;;;;757045;184;916693;-74
2021/10/05 11:14:04;;;;;;;8.83;5.70;;;;;;;;;;757460;183;815221;-81
2021/10/05 11:16:30;;;;;;;12.53;5.73;;;;;;;;;;768411;181;918459;-72
2021/10/05 11:19:01;;;;;;;19.43;5.80;;;;;;;;;;764650;182;915735;-79
2021/10/05 11:21:31;;;;;;;9.77;5.93;;;;;;;;;;763637;181;915002;-78
2021/10/05 11:23:57;;;;;;;8.27;5.30;;;;;;;;;;766656;181;916489;-76
2021/10/05 11:26:29;;;;;;;10.20;4.57;;;;;;;;;;760614;181;902307;-78
2021/10/05 11:28:54;;;;;;;8.10;6.10;;;;;;;;;;770309;182;811739;-80
2021/10/05 11:31:20;;;;;;;7.93;5.27;;;;;;;;;;763092;180;810771;-74
2021/10/05 11:33:46;;;;;;;8.00;5.55;;;;;;;;;;762544;180;910484;-79
2021/10/05 11:36:13;;;;;;;11.30;6.53;;;;;;;;;;769332;180;919439;-76
2021/10/05 11:38:39;;;;;;;8.70;5.47;;;;;;;;;;772446;178;918714;-73
2021/10/05 11:41:05;;;;;;;12.77;5.60;;;;;;;;;;775894;180;919224;-77
2021/10/05 11:43:34;;;;;;;13.77;6.70;;;;;;;;;;775057;178;816439;-76
2021/10/05 11:46:00;;;;;;;10.60;5.80;;;;;;;;;;776320;180;920499;-76
2021/10/05 11:48:26;;;;;;;9.70;5.70;;;;;;;;;;767798;178;818685;-73
2021/10/05 11:50:52;;;;;;;17.73;5.43;;;;;;;;;;770795;178;918438;-75
2021/10/05 11:53:18;;;;;;;8.60;6.77;;;;;;;;;;779469;177;771390;-76
2021/10/05 11:55:43;;;;;;;10.33;6.00;;;;;;;;;;767003;177;710812;-79
2021/10/05 11:58:10;;;;;;;10.67;6.17;;;;;;;;;;761999;181;1019184;-76
2021/10/05 12:00:36;;;;;;;8.03;6.00;;;;;;;;;;776850;180;958737;-79
2021/10/05 12:03:01;;;;;;;8.20;5.80;;;;;;;;;;777341;180;917048;-82
2021/10/05 12:05:27;;;;;;;12.43;5.60;;;;;;;;;;767973;180;920096;-78
2021/10/05 12:07:53;;;;;;;12.70;6.00;;;;;;;;;;769397;181;919078;-77
2021/10/05 12:10:19;;;;;;;8.77;6.30;;;;;;;;;;771300;181;621680;-76
2021/10/05 12:12:45;;;;;;;7.47;5.47;;;;;;;;;;767228;181;664376;-79
2021/10/05 12:15:10;;;;;;;16.73;6.43;;;;;;;;;;757167;182;916161;-77
2021/10/05 12:17:36;;;;;;;14.82;6.65;;;;;;;;;;766560;182;916477;-79
2021/10/05 12:20:03;;;;;;;7.20;5.27;;;;;;;;;;772039;180;917835;-72
2021/10/05 12:22:31;;;;;;;8.87;6.30;;;;;;;;;;767820;180;918498;-71
2021/10/05 12:24:57;;;;;;;12.77;6.00;;;;;;;;;;769406;180;938814;-77
2021/10/05 12:27:40;;;;;;;8.30;5.60;;;;;;;;;;766922;182;815779;-75
2021/10/05 12:30:06;;;;;;;12.67;5.90;;;;;;;;;;763502;181;919588;-76
2021/10/05 12:32:32;;;;;;;12.60;5.60;;;;;;;;;;777218;178;907516;-78
2021/10/05 12:34:59;;;;;;;10.50;6.50;;;;;;;;;;774241;180;712930;-75
2021/10/05 12:37:24;;;;;;;17.27;6.50;;;;;;;;;;767527;181;815519;-75
2021/10/05 12:39:52;;;;;;;9.57;6.00;;;;;;;;;;763534;181;917694;-75
2021/10/05 12:42:18;;;;;;;9.23;5.57;;;;;;;;;;771086;179;875614;-79
2021/10/05 12:44:44;;;;;;;13.38;7.30;;;;;;;;;;773806;177;826218;-78
2021/10/05 12:47:10;;;;;;;21.47;7.30;;;;;;;;;;768075;182;817417;-77
2021/10/05 12:49:36;;;;;;;9.20;6.23;;;;;;;;;;766899;177;751592;-74
2021/10/05 12:52:02;;;;;;;10.25;5.90;;;;;;;;;;778707;180;843322;-80
2021/10/05 12:54:28;;;;;;;7.23;5.90;;;;;;;;;;781512;180;815657;-75
2021/10/05 12:56:54;;;;;;;11.33;6.30;;;;;;;;;;770876;177;919220;-70
2021/10/05 12:59:20;;;;;;;13.70;6.43;;;;;;;;;;766673;181;738282;-75
2021/10/05 13:01:45;;;;;;;10.13;6.40;;;;;;;;;;776970;178;918785;-76
2021/10/05 13:04:11;;;;;;;7.90;5.60;;;;;;;;;;766337;177;918767;-77
2021/10/05 13:06:37;;;;;;;12.13;6.43;;;;;;;;;;772372;179;914390;-79
2021/10/05 13:09:05;;;;;;;10.73;6.73;;;;;;;;;;782085;180;816522;-73
2021/10/05 13:11:29;;;;;;;14.33;6.53;;;;;;;;;;774465;178;770972;-78
2021/10/05 13:13:55;;;;;;;13.90;6.30;;;;;;;;;;778086;177;859182;-78
2021/10/05 13:16:21;;;;;;;9.93;6.23;;;;;;;;;;776088;180;921778;-77
2021/10/05 13:18:47;;;;;;;11.73;5.93;;;;;;;;;;776433;180;918259;-77
2021/10/05 13:21:12;;;;;;;24.03;7.17;;;;;;;;;;770339;180;918693;-76
2021/10/05 13:23:38;;;;;;;9.25;6.50;;;;;;;;;;774435;178;942604;-78
2021/10/05 13:26:04;;;;;;;8.00;6.00;;;;;;;;;;767823;181;712764;-78
2021/10/05 13:28:30;;;;;;;13.57;6.23;;;;;;;;;;775649;178;713543;-74
2021/10/05 13:30:56;;;;;;;8.90;5.63;;;;;;;;;;771343;180;918117;-78
2021/10/05 13:33:22;;;;;;;10.60;5.90;;;;;;;;;;777011;178;814790;-82
2021/10/05 13:35:47;;;;;;;14.07;6.37;;;;;;;;;;768872;180;920605;-76
2021/10/05 13:38:15;;;;;;;12.43;5.27;;;;;;;;;;772712;179;918671;-77
2021/10/05 13:40:42;;;;;;;17.63;6.33;;;;;;;;;;766702;178;1812999;-78
2021/10/05 13:43:08;;;;;;;13.10;6.73;;;;;;;;;;771522;180;816270;-73
2021/10/05 13:45:34;;;;;;;10.83;6.50;;;;;;;;;;769576;180;918850;-74
2021/10/05 13:47:59;;;;;;;7.80;6.10;;;;;;;;;;773091;180;918893;-83
2021/10/05 13:50:27;;;;;;;10.63;6.57;;;;;;;;;;778055;177;919934;-78
2021/10/05 13:52:53;;;;;;;12.00;6.03;;;;;;;;;;769764;179;918710;-79
2021/10/05 13:55:19;;;;;;;13.62;6.62;;;;;;;;;;774073;180;918828;-77
2021/10/05 13:57:44;;;;;;;17.93;6.43;;;;;;;;;;777508;180;906717;-79
2021/10/05 14:00:11;;;;;;;11.37;6.53;;;;;;;;;;776076;178;815770;-74
2021/10/05 14:02:36;;;;;;;10.33;5.83;;;;;;;;;;774031;180;918673;-72
2021/10/05 14:05:02;;;;;;;10.57;6.27;;;;;;;;;;774328;179;926824;-77
2021/10/05 14:07:28;;;;;;;9.43;6.33;;;;;;;;;;778779;180;918586;-74